createdAt,value
2018-08-19T00:00:45.542Z,98.37
2018-08-19T00:01:45.995Z,98.34
2018-08-19T00:02:46.469Z,98.33
2018-08-19T00:03:46.949Z,98.35
2018-08-19T00:04:47.415Z,98.33
2018-08-19T00:05:47.889Z,98.33
2018-08-19T00:06:48.363Z,98.33
2018-08-19T00:07:48.840Z,98.32
2018-08-19T00:08:49.311Z,98.32
2018-08-19T00:09:49.787Z,98.32
2018-08-19T00:10:50.260Z,98.36
2018-08-19T00:11:50.736Z,98.35
2018-08-19T00:12:51.212Z,98.34
2018-08-19T00:13:51.686Z,98.35
2018-08-19T00:14:52.160Z,98.36
2018-08-19T00:15:52.635Z,98.36
2018-08-19T00:16:53.114Z,98.35
2018-08-19T00:17:53.584Z,98.35
2018-08-19T00:18:54.060Z,98.37
2018-08-19T00:19:54.535Z,98.35
2018-08-19T00:20:55.010Z,98.37
2018-08-19T00:21:55.488Z,98.35
2018-08-19T00:22:55.961Z,98.34
2018-08-19T00:23:56.436Z,98.37
2018-08-19T00:24:56.909Z,98.35
2018-08-19T00:25:57.383Z,98.39
2018-08-19T00:26:57.858Z,98.38
2018-08-19T00:27:58.335Z,98.37
2018-08-19T00:28:58.810Z,98.37
2018-08-19T00:29:59.280Z,98.39
2018-08-19T00:30:59.755Z,98.40
2018-08-19T00:32:00.228Z,98.38
2018-08-19T00:33:00.703Z,98.37
2018-08-19T00:34:01.176Z,98.38
2018-08-19T00:35:01.652Z,98.37
2018-08-19T00:36:02.123Z,98.39
2018-08-19T00:37:02.597Z,98.38
2018-08-19T00:38:03.069Z,98.38
2018-08-19T00:39:03.541Z,98.38
2018-08-19T00:40:04.015Z,98.38
2018-08-19T00:41:04.490Z,98.39
2018-08-19T00:42:04.960Z,98.40
2018-08-19T00:43:05.434Z,98.37
2018-08-19T00:44:05.907Z,98.39
2018-08-19T00:45:06.383Z,98.41
2018-08-19T00:46:06.850Z,98.41
2018-08-19T00:47:07.325Z,98.41
2018-08-19T00:48:07.793Z,98.36
2018-08-19T00:49:08.267Z,98.40
2018-08-19T00:50:08.738Z,98.41
2018-08-19T00:51:09.412Z,98.40
2018-08-19T00:52:09.681Z,98.40
2018-08-19T00:53:10.155Z,98.40
2018-08-19T00:54:10.624Z,98.39
2018-08-19T00:55:11.119Z,98.39
2018-08-19T00:56:11.569Z,98.39
2018-08-19T00:57:12.040Z,98.38
2018-08-19T00:58:12.511Z,98.38
2018-08-19T00:59:12.980Z,98.42
2018-08-19T01:00:13.455Z,98.42
2018-08-19T01:01:13.925Z,98.40
2018-08-19T01:02:14.393Z,98.42
2018-08-19T01:03:14.865Z,98.42
2018-08-19T01:04:15.337Z,98.41
2018-08-19T01:05:15.807Z,98.40
2018-08-19T01:06:16.277Z,98.42
2018-08-19T01:07:16.752Z,98.42
2018-08-19T01:08:17.224Z,98.42
2018-08-19T01:09:17.695Z,98.42
2018-08-19T01:10:18.166Z,98.42
2018-08-19T01:11:18.639Z,98.42
2018-08-19T01:12:19.108Z,98.42
2018-08-19T01:13:19.579Z,98.40
2018-08-19T01:14:20.053Z,98.39
2018-08-19T01:15:20.525Z,98.39
2018-08-19T01:16:21.002Z,98.42
2018-08-19T01:17:21.472Z,98.42
2018-08-19T01:18:21.944Z,98.41
2018-08-19T01:19:22.415Z,98.41
2018-08-19T01:20:22.895Z,98.42
2018-08-19T01:21:23.364Z,98.43
2018-08-19T01:22:23.838Z,98.43
2018-08-19T01:23:24.311Z,98.41
2018-08-19T01:24:24.786Z,98.41
2018-08-19T01:25:25.260Z,98.44
2018-08-19T01:26:25.733Z,98.43
2018-08-19T01:27:26.208Z,98.43
2018-08-19T01:28:26.684Z,98.44
2018-08-19T01:29:27.160Z,98.45
2018-08-19T01:30:27.836Z,98.45
2018-08-19T01:31:28.108Z,98.46
2018-08-19T01:32:28.584Z,98.45
2018-08-19T01:33:29.058Z,98.43
2018-08-19T01:34:29.545Z,98.44
2018-08-19T01:35:30.008Z,98.45
2018-08-19T01:36:30.482Z,98.46
2018-08-19T01:37:30.958Z,98.46
2018-08-19T01:38:31.434Z,98.44
2018-08-19T01:39:31.908Z,98.42
2018-08-19T01:40:32.381Z,98.46
2018-08-19T01:41:32.859Z,98.45
2018-08-19T01:42:33.329Z,98.44
2018-08-19T01:43:33.805Z,98.43
2018-08-19T01:44:34.283Z,98.42
2018-08-19T01:45:34.754Z,98.45
2018-08-19T01:46:35.227Z,98.45
2018-08-19T01:47:35.702Z,98.45
2018-08-19T01:48:36.178Z,98.46
2018-08-19T01:49:36.648Z,98.44
2018-08-19T01:50:37.124Z,98.44
2018-08-19T01:51:37.596Z,98.45
2018-08-19T01:52:38.070Z,98.45
2018-08-19T01:53:38.543Z,98.45
2018-08-19T01:54:39.015Z,98.46
2018-08-19T01:55:39.489Z,98.46
2018-08-19T01:56:39.961Z,98.42
2018-08-19T01:57:40.437Z,98.40
2018-08-19T01:58:40.906Z,98.42
2018-08-19T01:59:41.379Z,98.42
2018-08-19T02:00:41.852Z,98.42
2018-08-19T02:01:42.323Z,98.45
2018-08-19T02:02:42.795Z,98.42
2018-08-19T02:03:43.473Z,98.43
2018-08-19T02:04:43.737Z,98.43
2018-08-19T02:05:44.210Z,98.43
2018-08-19T02:06:44.682Z,98.46
2018-08-19T02:07:45.187Z,98.45
2018-08-19T02:08:45.640Z,98.44
2018-08-19T02:09:46.102Z,98.44
2018-08-19T02:10:46.587Z,98.45
2018-08-19T02:11:47.039Z,98.45
2018-08-19T02:12:47.516Z,98.45
2018-08-19T02:13:47.981Z,98.47
2018-08-19T02:14:48.453Z,98.44
2018-08-19T02:15:48.922Z,98.47
2018-08-19T02:16:49.393Z,98.43
2018-08-19T02:17:49.865Z,98.43
2018-08-19T02:18:50.334Z,98.42
2018-08-19T02:19:50.810Z,98.43
2018-08-19T02:20:51.279Z,98.43
2018-08-19T02:21:51.753Z,98.40
2018-08-19T02:22:52.221Z,98.41
2018-08-19T02:23:52.692Z,98.42
2018-08-19T02:24:53.165Z,98.39
2018-08-19T02:25:53.637Z,98.39
2018-08-19T02:26:54.108Z,98.40
2018-08-19T02:27:54.580Z,98.37
2018-08-19T02:28:55.053Z,98.39
2018-08-19T02:29:55.526Z,98.41
2018-08-19T02:30:56.000Z,98.42
2018-08-19T02:31:56.471Z,98.39
2018-08-19T02:32:56.946Z,98.40
2018-08-19T02:33:57.416Z,98.39
2018-08-19T02:34:57.895Z,98.35
2018-08-19T02:35:58.363Z,98.31
2018-08-19T02:36:58.837Z,98.31
2018-08-19T02:37:59.311Z,98.31
2018-08-19T02:38:59.784Z,98.30
2018-08-19T02:40:00.258Z,98.27
2018-08-19T02:41:00.735Z,98.22
2018-08-19T02:42:01.213Z,98.15
2018-08-19T02:43:01.681Z,98.06
2018-08-19T02:44:02.158Z,97.96
2018-08-19T02:45:02.632Z,97.85
2018-08-19T02:46:03.111Z,97.73
2018-08-19T02:47:03.582Z,97.61
2018-08-19T02:48:04.056Z,97.49
2018-08-19T02:49:04.533Z,97.35
2018-08-19T02:50:05.008Z,97.20
2018-08-19T02:51:05.482Z,97.06
2018-08-19T02:52:05.956Z,96.91
2018-08-19T02:53:06.431Z,96.75
2018-08-19T02:54:06.905Z,96.57
2018-08-19T02:55:07.380Z,96.32
2018-08-19T02:56:07.855Z,96.32
2018-08-19T02:57:08.332Z,96.23
2018-08-19T02:58:08.803Z,96.12
2018-08-19T02:59:09.277Z,95.85
2018-08-19T03:00:09.750Z,95.66
2018-08-19T03:01:10.224Z,95.42
2018-08-19T03:02:10.697Z,95.10
2018-08-19T03:03:11.169Z,95.02
2018-08-19T03:04:11.648Z,94.97
2018-08-19T03:05:12.170Z,94.85
2018-08-19T03:06:12.591Z,94.61
2018-08-19T03:07:13.063Z,94.32
2018-08-19T03:08:13.539Z,94.01
2018-08-19T03:09:14.010Z,93.65
2018-08-19T03:10:14.483Z,93.33
2018-08-19T03:11:15.002Z,92.90
2018-08-19T03:12:15.425Z,92.58
2018-08-19T03:13:15.900Z,92.53
2018-08-19T03:14:16.371Z,92.46
2018-08-19T03:15:16.896Z,92.48
2018-08-19T03:16:17.314Z,92.55
2018-08-19T03:17:17.786Z,92.58
2018-08-19T03:18:18.259Z,92.79
2018-08-19T03:19:18.731Z,92.91
2018-08-19T03:20:19.202Z,92.97
2018-08-19T03:21:19.674Z,93.10
2018-08-19T03:22:20.142Z,92.33
2018-08-19T03:23:20.617Z,91.48
2018-08-19T03:24:21.085Z,90.67
2018-08-19T03:25:21.558Z,90.04
2018-08-19T03:26:22.028Z,89.62
2018-08-19T03:27:22.700Z,89.27
2018-08-19T03:28:22.969Z,89.11
2018-08-19T03:29:23.439Z,89.00
2018-08-19T03:30:23.923Z,88.76
2018-08-19T03:31:24.382Z,89.08
2018-08-19T03:32:24.853Z,89.40
2018-08-19T03:33:25.323Z,89.52
2018-08-19T03:34:25.796Z,89.87
2018-08-19T03:35:26.267Z,89.74
2018-08-19T03:36:26.740Z,89.91
2018-08-19T03:37:27.213Z,89.69
2018-08-19T03:38:27.683Z,89.95
2018-08-19T03:39:28.154Z,90.72
2018-08-19T03:40:28.628Z,91.10
2018-08-19T03:41:29.097Z,90.75
2018-08-19T03:42:29.571Z,90.20
2018-08-19T03:43:30.043Z,89.34
2018-08-19T03:44:30.514Z,88.30
2018-08-19T03:45:31.040Z,87.76
2018-08-19T03:46:31.462Z,87.38
2018-08-19T03:47:31.932Z,87.43
2018-08-19T03:48:32.409Z,87.82
2018-08-19T03:49:32.881Z,89.50
2018-08-19T03:50:33.358Z,90.08
2018-08-19T03:51:33.830Z,88.40
2018-08-19T03:52:34.303Z,87.69
2018-08-19T03:53:34.777Z,87.26
2018-08-19T03:54:35.253Z,86.79
2018-08-19T03:55:35.727Z,86.23
2018-08-19T03:56:36.207Z,85.50
2018-08-19T03:57:36.683Z,84.63
2018-08-19T03:58:37.153Z,83.59
2018-08-19T03:59:37.625Z,82.89
2018-08-19T04:00:38.101Z,82.33
2018-08-19T04:01:38.576Z,81.85
2018-08-19T04:02:39.050Z,81.42
2018-08-19T04:03:39.525Z,81.52
2018-08-19T04:04:40.036Z,81.53
2018-08-19T04:05:40.476Z,81.49
2018-08-19T04:06:40.951Z,81.21
2018-08-19T04:07:41.422Z,80.91
2018-08-19T04:08:41.895Z,80.58
2018-08-19T04:09:42.370Z,80.39
2018-08-19T04:10:42.845Z,80.28
2018-08-19T04:11:43.318Z,80.11
2018-08-19T04:12:43.830Z,79.95
2018-08-19T04:13:44.275Z,79.85
2018-08-19T04:14:44.740Z,79.68
2018-08-19T04:15:45.213Z,79.59
2018-08-19T04:16:45.686Z,79.50
2018-08-19T04:17:46.160Z,80.10
2018-08-19T04:18:46.633Z,80.77
2018-08-19T04:19:47.110Z,81.49
2018-08-19T04:20:47.579Z,81.90
2018-08-19T04:21:48.051Z,82.11
2018-08-19T04:22:48.523Z,82.52
2018-08-19T04:23:48.995Z,82.73
2018-08-19T04:24:49.468Z,82.96
2018-08-19T04:25:49.940Z,83.10
2018-08-19T04:26:50.412Z,83.24
2018-08-19T04:27:50.881Z,83.14
2018-08-19T04:28:51.355Z,83.25
2018-08-19T04:29:51.829Z,83.38
2018-08-19T04:30:52.299Z,83.64
2018-08-19T04:31:52.771Z,83.96
2018-08-19T04:32:53.241Z,84.06
2018-08-19T04:33:53.713Z,84.15
2018-08-19T04:34:54.184Z,84.29
2018-08-19T04:35:54.659Z,84.24
2018-08-19T04:36:55.125Z,84.33
2018-08-19T04:37:55.600Z,84.40
2018-08-19T04:38:56.069Z,84.65
2018-08-19T04:39:56.540Z,84.20
2018-08-19T04:40:57.009Z,83.98
2018-08-19T04:41:57.479Z,83.65
2018-08-19T04:42:57.953Z,83.52
2018-08-19T04:43:58.422Z,83.61
2018-08-19T04:44:58.892Z,83.71
2018-08-19T04:45:59.365Z,83.68
2018-08-19T04:46:59.836Z,83.59
2018-08-19T04:48:00.306Z,83.43
2018-08-19T04:49:00.783Z,83.38
2018-08-19T04:50:01.249Z,83.34
2018-08-19T04:51:01.725Z,82.71
2018-08-19T04:52:02.193Z,82.27
2018-08-19T04:53:02.665Z,82.54
2018-08-19T04:54:03.139Z,82.66
2018-08-19T04:55:03.612Z,82.86
2018-08-19T04:56:04.083Z,83.29
2018-08-19T04:57:04.555Z,84.32
2018-08-19T04:58:05.030Z,84.26
2018-08-19T04:59:05.504Z,84.18
2018-08-19T05:00:05.976Z,84.37
2018-08-19T05:01:06.450Z,84.52
2018-08-19T05:02:06.967Z,85.42
2018-08-19T05:03:07.401Z,85.80
2018-08-19T05:04:07.872Z,85.38
2018-08-19T05:05:08.349Z,85.41
2018-08-19T05:06:08.821Z,85.70
2018-08-19T05:07:09.300Z,85.60
2018-08-19T05:08:09.872Z,85.36
2018-08-19T05:09:10.245Z,85.99
2018-08-19T05:10:10.721Z,85.78
2018-08-19T05:11:11.196Z,84.35
2018-08-19T05:12:11.667Z,83.42
2018-08-19T05:13:12.144Z,83.11
2018-08-19T05:14:12.621Z,83.08
2018-08-19T05:15:13.094Z,82.57
2018-08-19T05:16:13.569Z,83.32
2018-08-19T05:17:14.048Z,82.98
2018-08-19T05:18:14.518Z,81.90
2018-08-19T05:19:14.992Z,79.97
2018-08-19T05:20:15.469Z,80.46
2018-08-19T05:21:15.943Z,81.38
2018-08-19T05:22:16.415Z,82.17
2018-08-19T05:23:16.890Z,81.04
2018-08-19T05:24:17.365Z,78.33
2018-08-19T05:25:17.839Z,79.47
2018-08-19T05:26:18.311Z,80.28
2018-08-19T05:27:18.787Z,80.16
2018-08-19T05:28:19.282Z,80.56
2018-08-19T05:29:19.733Z,81.83
2018-08-19T05:30:20.206Z,82.05
2018-08-19T05:31:20.685Z,82.05
2018-08-19T05:32:21.151Z,82.26
2018-08-19T05:33:21.625Z,82.27
2018-08-19T05:34:22.096Z,82.13
2018-08-19T05:35:22.572Z,82.16
2018-08-19T05:36:23.044Z,81.69
2018-08-19T05:37:23.518Z,81.66
2018-08-19T05:38:23.988Z,81.52
2018-08-19T05:39:24.472Z,81.98
2018-08-19T05:40:24.931Z,82.15
2018-08-19T05:41:25.404Z,81.65
2018-08-19T05:42:25.880Z,80.42
2018-08-19T05:43:26.347Z,81.64
2018-08-19T05:44:26.819Z,81.74
2018-08-19T05:45:27.290Z,80.30
2018-08-19T05:46:27.762Z,81.88
2018-08-19T05:47:28.237Z,82.27
2018-08-19T05:48:28.709Z,83.04
2018-08-19T05:49:29.176Z,81.10
2018-08-19T05:50:29.649Z,79.32
2018-08-19T05:51:30.119Z,79.54
2018-08-19T05:52:30.590Z,79.40
2018-08-19T05:53:31.060Z,79.38
2018-08-19T05:54:31.531Z,78.72
2018-08-19T05:55:32.050Z,79.83
2018-08-19T05:56:32.473Z,80.94
2018-08-19T05:57:33.147Z,82.03
2018-08-19T05:58:33.417Z,81.70
2018-08-19T05:59:33.888Z,82.25
2018-08-19T06:00:34.358Z,80.46
2018-08-19T06:01:34.829Z,79.87
2018-08-19T06:02:35.301Z,80.67
2018-08-19T06:03:35.773Z,80.74
2018-08-19T06:04:36.248Z,79.90
2018-08-19T06:05:36.722Z,80.86
2018-08-19T06:06:37.191Z,80.75
2018-08-19T06:07:37.689Z,80.89
2018-08-19T06:08:38.134Z,80.19
2018-08-19T06:09:38.607Z,76.56
2018-08-19T06:10:39.081Z,77.33
2018-08-19T06:11:39.557Z,76.90
2018-08-19T06:12:40.029Z,79.06
2018-08-19T06:13:40.501Z,77.31
2018-08-19T06:14:40.975Z,78.57
2018-08-19T06:15:41.454Z,75.92
2018-08-19T06:16:41.922Z,77.48
2018-08-19T06:17:42.397Z,78.23
2018-08-19T06:18:42.875Z,77.80
2018-08-19T06:19:43.351Z,77.61
2018-08-19T06:20:43.822Z,78.86
2018-08-19T06:21:44.298Z,77.04
2018-08-19T06:22:44.774Z,77.55
2018-08-19T06:23:45.248Z,78.19
2018-08-19T06:24:45.838Z,78.44
2018-08-19T06:25:46.199Z,79.04
2018-08-19T06:26:46.674Z,78.97
2018-08-19T06:27:47.157Z,78.59
2018-08-19T06:28:47.625Z,79.51
2018-08-19T06:29:48.104Z,78.13
2018-08-19T06:30:48.576Z,79.37
2018-08-19T06:31:49.052Z,80.37
2018-08-19T06:32:49.527Z,80.23
2018-08-19T06:33:50.004Z,79.88
2018-08-19T06:34:50.673Z,79.93
2018-08-19T06:35:50.953Z,80.28
2018-08-19T06:36:51.427Z,80.27
2018-08-19T06:37:51.902Z,79.51
2018-08-19T06:38:52.589Z,78.10
2018-08-19T06:39:52.854Z,78.65
2018-08-19T06:40:53.329Z,78.22
2018-08-19T06:41:53.801Z,79.01
2018-08-19T06:42:54.281Z,77.82
2018-08-19T06:43:54.752Z,78.08
2018-08-19T06:44:55.227Z,79.04
2018-08-19T06:45:55.701Z,77.90
2018-08-19T06:46:56.176Z,77.50
2018-08-19T06:47:56.652Z,77.38
2018-08-19T06:48:57.127Z,77.48
2018-08-19T06:49:57.598Z,79.20
2018-08-19T06:50:58.073Z,79.29
2018-08-19T06:51:58.546Z,79.48
2018-08-19T06:52:59.023Z,80.11
2018-08-19T06:53:59.493Z,81.33
2018-08-19T06:54:59.969Z,80.43
2018-08-19T06:56:00.442Z,80.69
2018-08-19T06:57:00.917Z,81.75
2018-08-19T06:58:01.389Z,81.47
2018-08-19T06:59:01.862Z,79.14
2018-08-19T07:00:02.336Z,78.44
2018-08-19T07:01:02.809Z,77.68
2018-08-19T07:02:03.282Z,79.11
2018-08-19T07:03:03.758Z,79.30
2018-08-19T07:04:04.277Z,78.73
2018-08-19T07:05:04.700Z,80.72
2018-08-19T07:06:05.176Z,79.85
2018-08-19T07:07:05.655Z,78.94
2018-08-19T07:08:06.125Z,77.80
2018-08-19T07:09:06.595Z,77.13
2018-08-19T07:10:07.070Z,78.05
2018-08-19T07:11:07.543Z,79.22
2018-08-19T07:12:08.017Z,78.18
2018-08-19T07:13:08.488Z,78.94
2018-08-19T07:14:08.963Z,78.49
2018-08-19T07:15:09.434Z,78.03
2018-08-19T07:16:10.111Z,78.38
2018-08-19T07:17:10.382Z,79.11
2018-08-19T07:18:10.858Z,78.54
2018-08-19T07:19:11.331Z,78.43
2018-08-19T07:20:11.808Z,78.96
2018-08-19T07:21:12.304Z,78.36
2018-08-19T07:22:12.771Z,78.30
2018-08-19T07:23:13.229Z,80.44
2018-08-19T07:24:13.701Z,82.14
2018-08-19T07:25:14.178Z,82.84
2018-08-19T07:26:14.652Z,82.24
2018-08-19T07:27:15.127Z,83.64
2018-08-19T07:28:15.603Z,83.21
2018-08-19T07:29:16.078Z,85.18
2018-08-19T07:30:16.555Z,84.39
2018-08-19T07:31:17.031Z,85.17
2018-08-19T07:32:17.509Z,85.13
2018-08-19T07:33:17.983Z,84.67
2018-08-19T07:34:18.460Z,85.60
2018-08-19T07:35:18.939Z,84.97
2018-08-19T07:36:19.416Z,84.35
2018-08-19T07:37:19.894Z,83.04
2018-08-19T07:38:20.371Z,83.31
2018-08-19T07:39:20.849Z,81.50
2018-08-19T07:40:21.329Z,82.50
2018-08-19T07:41:21.807Z,82.57
2018-08-19T07:42:22.286Z,83.44
2018-08-19T07:43:22.766Z,81.64
2018-08-19T07:44:23.241Z,82.60
2018-08-19T07:46:24.197Z,80.67
2018-08-19T07:47:24.678Z,81.87
2018-08-19T07:48:25.157Z,84.67
2018-08-19T07:49:25.635Z,84.86
2018-08-19T07:50:26.113Z,85.26
2018-08-19T07:51:26.597Z,83.81
2018-08-19T07:52:27.274Z,85.80
2018-08-19T07:53:27.545Z,87.24
2018-08-19T07:54:28.024Z,87.53
2018-08-19T07:55:28.503Z,89.01
2018-08-19T07:56:28.984Z,90.88
2018-08-19T07:57:29.460Z,91.03
2018-08-19T07:58:29.937Z,90.39
2018-08-19T07:59:30.411Z,89.98
2018-08-19T08:00:30.887Z,89.99
2018-08-19T08:01:31.392Z,90.10
2018-08-19T08:02:31.851Z,89.95
2018-08-19T08:03:32.317Z,89.13
2018-08-19T08:04:32.795Z,88.74
2018-08-19T08:05:33.269Z,89.37
2018-08-19T08:06:33.746Z,89.03
2018-08-19T08:07:34.273Z,87.66
2018-08-19T08:08:34.703Z,85.63
2018-08-19T08:09:35.175Z,84.65
2018-08-19T08:10:35.653Z,81.57
2018-08-19T08:11:36.131Z,82.37
2018-08-19T08:12:36.660Z,85.39
2018-08-19T08:13:37.085Z,88.70
2018-08-19T08:14:37.565Z,90.04
2018-08-19T08:15:38.042Z,87.56
2018-08-19T08:16:38.517Z,87.43
2018-08-19T08:17:38.994Z,88.24
2018-08-19T08:18:39.471Z,87.54
2018-08-19T08:19:39.947Z,86.64
2018-08-19T08:20:40.424Z,86.76
2018-08-19T08:21:41.060Z,87.05
2018-08-19T08:22:41.380Z,88.66
2018-08-19T08:23:41.853Z,85.91
2018-08-19T08:24:42.332Z,84.78
2018-08-19T08:25:42.808Z,85.69
2018-08-19T08:26:43.285Z,88.19
2018-08-19T08:27:43.763Z,89.62
2018-08-19T08:28:44.239Z,90.69
2018-08-19T08:29:44.713Z,89.85
2018-08-19T08:30:45.199Z,88.33
2018-08-19T08:31:45.671Z,88.52
2018-08-19T08:32:46.199Z,87.63
2018-08-19T08:33:46.627Z,87.82
2018-08-19T08:34:47.102Z,86.49
2018-08-19T08:35:47.581Z,84.65
2018-08-19T08:36:48.058Z,84.76
2018-08-19T08:37:48.537Z,83.16
2018-08-19T08:38:49.015Z,83.69
2018-08-19T08:39:49.496Z,83.56
2018-08-19T08:40:49.972Z,84.11
2018-08-19T08:41:50.451Z,84.62
2018-08-19T08:42:50.931Z,82.10
2018-08-19T08:43:51.408Z,84.74
2018-08-19T08:44:51.888Z,84.99
2018-08-19T08:45:52.366Z,85.50
2018-08-19T08:46:52.847Z,85.71
2018-08-19T08:47:53.328Z,87.98
2018-08-19T08:48:53.801Z,88.63
2018-08-19T08:49:54.276Z,87.19
2018-08-19T08:50:54.756Z,86.25
2018-08-19T08:51:55.236Z,84.47
2018-08-19T08:52:55.715Z,85.06
2018-08-19T08:53:56.190Z,83.24
2018-08-19T08:54:56.669Z,85.51
2018-08-19T08:55:57.147Z,82.27
2018-08-19T08:56:57.626Z,82.15
2018-08-19T08:57:58.104Z,84.25
2018-08-19T08:58:58.579Z,85.48
2018-08-19T08:59:59.057Z,84.17
2018-08-19T09:00:59.535Z,83.56
2018-08-19T09:02:00.218Z,83.45
2018-08-19T09:03:00.491Z,82.43
2018-08-19T09:04:00.966Z,82.07
2018-08-19T09:05:01.443Z,81.71
2018-08-19T09:06:01.920Z,81.95
2018-08-19T09:07:02.399Z,82.79
2018-08-19T09:08:02.877Z,82.82
2018-08-19T09:09:03.353Z,81.19
2018-08-19T09:10:03.828Z,82.36
2018-08-19T09:11:04.305Z,82.65
2018-08-19T09:12:04.783Z,84.65
2018-08-19T09:13:05.259Z,83.20
2018-08-19T09:14:05.735Z,84.42
2018-08-19T09:15:06.211Z,82.21
2018-08-19T09:16:06.687Z,83.02
2018-08-19T09:17:07.164Z,82.77
2018-08-19T09:18:07.642Z,82.31
2018-08-19T09:19:08.117Z,81.49
2018-08-19T09:20:08.591Z,81.09
2018-08-19T09:21:09.069Z,80.99
2018-08-19T09:22:09.543Z,81.78
2018-08-19T09:23:10.088Z,83.13
2018-08-19T09:24:10.497Z,81.29
2018-08-19T09:25:10.975Z,78.01
2018-08-19T09:26:11.449Z,81.44
2018-08-19T09:27:11.925Z,83.68
2018-08-19T09:28:12.400Z,80.41
2018-08-19T09:29:12.884Z,80.91
2018-08-19T09:30:13.352Z,79.97
2018-08-19T09:31:13.827Z,82.54
2018-08-19T09:32:14.302Z,82.01
2018-08-19T09:33:14.781Z,79.31
2018-08-19T09:34:15.253Z,79.85
2018-08-19T09:35:15.732Z,81.10
2018-08-19T09:36:16.208Z,79.66
2018-08-19T09:37:16.680Z,81.03
2018-08-19T09:38:17.205Z,80.74
2018-08-19T09:39:17.635Z,79.29
2018-08-19T09:40:18.107Z,79.03
2018-08-19T09:41:18.584Z,77.51
2018-08-19T09:42:19.056Z,79.13
2018-08-19T09:43:19.532Z,77.28
2018-08-19T09:44:20.009Z,76.19
2018-08-19T09:45:20.484Z,74.22
2018-08-19T09:46:20.959Z,73.91
2018-08-19T09:47:21.433Z,74.80
2018-08-19T09:48:21.911Z,73.67
2018-08-19T09:49:22.386Z,77.32
2018-08-19T09:50:22.859Z,75.13
2018-08-19T09:51:23.335Z,75.08
2018-08-19T09:52:23.810Z,77.89
2018-08-19T09:53:24.286Z,80.17
2018-08-19T09:54:24.759Z,79.96
2018-08-19T09:55:25.233Z,78.74
2018-08-19T09:56:25.710Z,77.95
2018-08-19T09:57:26.192Z,79.17
2018-08-19T09:58:26.660Z,81.08
2018-08-19T09:59:27.134Z,79.85
2018-08-19T10:00:27.610Z,80.33
2018-08-19T10:01:28.136Z,79.74
2018-08-19T10:02:28.561Z,81.69
2018-08-19T10:03:29.035Z,82.56
2018-08-19T10:04:29.511Z,80.14
2018-08-19T10:05:29.989Z,79.82
2018-08-19T10:06:30.459Z,83.61
2018-08-19T10:07:30.995Z,84.93
2018-08-19T10:08:31.613Z,84.86
2018-08-19T10:09:31.887Z,83.37
2018-08-19T10:10:32.363Z,85.52
2018-08-19T10:11:32.836Z,84.09
2018-08-19T10:12:33.312Z,83.73
2018-08-19T10:13:33.812Z,82.54
2018-08-19T10:14:34.262Z,81.74
2018-08-19T10:15:34.737Z,82.28
2018-08-19T10:16:35.414Z,77.78
2018-08-19T10:17:35.710Z,80.57
2018-08-19T10:18:36.159Z,82.25
2018-08-19T10:19:36.636Z,82.04
2018-08-19T10:20:37.111Z,80.40
2018-08-19T10:21:37.588Z,78.47
2018-08-19T10:22:38.060Z,74.23
2018-08-19T10:23:38.537Z,73.26
2018-08-19T10:24:39.015Z,73.38
2018-08-19T10:25:39.486Z,78.24
2018-08-19T10:26:39.974Z,79.92
2018-08-19T10:27:40.436Z,75.85
2018-08-19T10:28:40.912Z,76.39
2018-08-19T10:29:41.388Z,78.68
2018-08-19T10:30:41.866Z,79.50
2018-08-19T10:31:42.339Z,80.76
2018-08-19T10:32:42.812Z,80.66
2018-08-19T10:33:43.288Z,79.70
2018-08-19T10:34:43.762Z,80.40
2018-08-19T10:35:44.238Z,79.61
2018-08-19T10:36:44.714Z,78.74
2018-08-19T10:37:45.190Z,76.95
2018-08-19T10:38:45.663Z,78.30
2018-08-19T10:39:46.139Z,77.50
2018-08-19T10:40:46.619Z,77.84
2018-08-19T10:41:47.108Z,78.96
2018-08-19T10:42:47.565Z,79.14
2018-08-19T10:43:48.045Z,79.69
2018-08-19T10:44:48.539Z,78.80
2018-08-19T10:45:48.991Z,78.33
2018-08-19T10:46:49.467Z,76.66
2018-08-19T10:47:49.945Z,76.26
2018-08-19T10:48:50.416Z,76.12
2018-08-19T10:49:50.894Z,75.12
2018-08-19T10:50:51.370Z,74.51
2018-08-19T10:51:51.845Z,76.69
2018-08-19T10:52:52.320Z,78.04
2018-08-19T10:53:52.795Z,78.82
2018-08-19T10:54:53.270Z,78.62
2018-08-19T10:55:53.752Z,78.44
2018-08-19T10:56:54.221Z,75.87
2018-08-19T10:57:54.698Z,76.71
2018-08-19T10:58:55.224Z,76.35
2018-08-19T10:59:55.716Z,77.43
2018-08-19T11:00:56.126Z,79.50
2018-08-19T11:01:56.602Z,80.78
2018-08-19T11:02:57.076Z,79.92
2018-08-19T11:03:57.553Z,79.06
2018-08-19T11:04:58.039Z,78.48
2018-08-19T11:05:58.504Z,78.36
2018-08-19T11:06:58.980Z,79.97
2018-08-19T11:07:59.456Z,80.09
2018-08-19T11:08:59.932Z,79.77
2018-08-19T11:10:00.407Z,79.34
2018-08-19T11:11:00.883Z,79.07
2018-08-19T11:12:01.359Z,79.87
2018-08-19T11:13:01.834Z,79.18
2018-08-19T11:14:02.313Z,77.75
2018-08-19T11:15:02.790Z,77.97
2018-08-19T11:16:03.264Z,79.14
2018-08-19T11:17:03.743Z,78.51
2018-08-19T11:18:04.216Z,79.92
2018-08-19T11:19:04.691Z,74.52
2018-08-19T11:20:05.171Z,77.04
2018-08-19T11:21:05.715Z,76.87
2018-08-19T11:22:06.121Z,78.38
2018-08-19T11:23:06.596Z,77.93
2018-08-19T11:24:07.073Z,75.14
2018-08-19T11:25:07.549Z,71.03
2018-08-19T11:26:08.025Z,69.93
2018-08-19T11:27:08.501Z,66.73
2018-08-19T11:28:08.977Z,64.27
2018-08-19T11:29:09.452Z,69.25
2018-08-19T11:30:09.929Z,72.97
2018-08-19T11:31:10.405Z,76.28
2018-08-19T11:32:10.881Z,78.12
2018-08-19T11:33:11.357Z,79.62
2018-08-19T11:34:11.834Z,80.94
2018-08-19T11:35:12.310Z,81.48
2018-08-19T11:36:12.785Z,78.03
2018-08-19T11:37:13.262Z,74.89
2018-08-19T11:38:13.740Z,72.81
2018-08-19T11:39:14.215Z,73.72
2018-08-19T11:40:14.692Z,75.89
2018-08-19T11:41:15.169Z,77.82
2018-08-19T11:42:15.650Z,79.56
2018-08-19T11:43:16.149Z,80.31
2018-08-19T11:44:16.598Z,81.70
2018-08-19T11:45:17.073Z,84.45
2018-08-19T11:46:17.551Z,84.71
2018-08-19T11:47:18.026Z,83.12
2018-08-19T11:48:18.503Z,80.73
2018-08-19T11:49:18.979Z,79.03
2018-08-19T11:50:19.456Z,82.32
2018-08-19T11:51:19.934Z,83.58
2018-08-19T11:52:20.409Z,83.01
2018-08-19T11:53:20.884Z,82.86
2018-08-19T11:54:21.363Z,82.25
2018-08-19T11:55:21.864Z,83.58
2018-08-19T11:56:22.321Z,82.95
2018-08-19T11:57:22.792Z,81.40
2018-08-19T11:58:23.270Z,79.46
2018-08-19T11:59:23.746Z,77.91
2018-08-19T12:00:24.221Z,76.35
2018-08-19T12:01:24.699Z,76.35
2018-08-19T12:02:25.177Z,76.98
2018-08-19T12:03:25.653Z,77.69
2018-08-19T12:04:26.181Z,75.96
2018-08-19T12:05:26.607Z,76.68
2018-08-19T12:06:27.087Z,74.40
2018-08-19T12:07:27.560Z,76.14
2018-08-19T12:08:28.038Z,75.15
2018-08-19T12:09:28.540Z,81.33
2018-08-19T12:10:28.995Z,81.49
2018-08-19T12:11:29.470Z,80.41
2018-08-19T12:12:29.947Z,81.41
2018-08-19T12:13:30.424Z,81.35
2018-08-19T12:14:30.900Z,81.40
2018-08-19T12:15:31.377Z,82.00
2018-08-19T12:16:31.856Z,81.22
2018-08-19T12:17:32.332Z,81.16
2018-08-19T12:18:32.809Z,82.18
2018-08-19T12:19:33.287Z,80.77
2018-08-19T12:20:33.764Z,82.69
2018-08-19T12:21:34.242Z,83.21
2018-08-19T12:22:34.720Z,82.04
2018-08-19T12:23:35.197Z,81.24
2018-08-19T12:24:35.675Z,82.72
2018-08-19T12:25:36.156Z,81.06
2018-08-19T12:26:36.629Z,81.90
2018-08-19T12:27:37.198Z,81.96
2018-08-19T12:28:37.585Z,82.29
2018-08-19T12:29:38.060Z,82.12
2018-08-19T12:30:38.539Z,81.68
2018-08-19T12:31:39.017Z,80.89
2018-08-19T12:32:39.494Z,82.97
2018-08-19T12:33:39.972Z,82.69
2018-08-19T12:34:40.451Z,82.73
2018-08-19T12:35:40.928Z,84.50
2018-08-19T12:36:41.406Z,86.14
2018-08-19T12:37:41.961Z,86.21
2018-08-19T12:38:42.361Z,85.72
2018-08-19T12:39:42.839Z,87.34
2018-08-19T12:40:43.317Z,84.65
2018-08-19T12:41:43.797Z,87.25
2018-08-19T12:42:44.272Z,84.81
2018-08-19T12:43:44.749Z,85.04
2018-08-19T12:44:45.290Z,86.76
2018-08-19T12:45:45.706Z,88.03
2018-08-19T12:46:46.183Z,86.51
2018-08-19T12:47:46.866Z,85.14
2018-08-19T12:48:47.141Z,84.61
2018-08-19T12:49:47.618Z,83.40
2018-08-19T12:50:48.096Z,83.06
2018-08-19T12:51:48.575Z,82.85
2018-08-19T12:52:49.056Z,82.40
2018-08-19T12:53:49.530Z,84.23
2018-08-19T12:54:50.011Z,85.68
2018-08-19T12:55:50.508Z,87.58
2018-08-19T12:56:50.970Z,87.01
2018-08-19T12:57:51.444Z,86.08
2018-08-19T12:58:51.923Z,87.17
2018-08-19T12:59:52.400Z,87.61